NCAR-RAP Real-Time Weather Data

Output produced by METARs form (17 December 2018  08:30 UTC)
found at http://weather.rap.ucar.edu/surface/
 
Conditions at: KMCF observed 17 December 2018  08:22 UTC
Temperature: 14.0°C (57°F)
Dewpoint: 11.0°C (52°F) [RH = 82%]
Pressure (altimeter): 30.14 inches Hg (1020.7 mb)
[Sea-level pressure: 1020.9 mb]
Winds: from the NNE (20 degrees) at 5 MPH (4 knots; 2.1 m/s)
Visibility: 10 or more miles (16+ km)
Ceiling: 3000 feet AGL
Clouds: few clouds at 1000 feet AGL
overcast cloud deck at 3000 feet AGL
Present Weather:
SOME DATA ABOVE MAY BE INACCURATE!!!
"$" is an indication the sensor requires maintenance
KMCF 170822Z AUTO 02004KT 10SM FEW010 OVC030 14/11 A3014 RMK AO2 SLP209 FZRANO $

Conditions at: KMCF observed 17 December 2018  08:01 UTC
Temperature: 14.0°C (57°F)
Dewpoint: 11.0°C (52°F) [RH = 82%]
Pressure (altimeter): 30.13 inches Hg (1020.4 mb)
[Sea-level pressure: 1020.6 mb]
Winds: from the NE (40 degrees) at 7 MPH (6 knots; 3.1 m/s)
Visibility: 10 or more miles (16+ km)
Ceiling: 3000 feet AGL
Clouds: few clouds at 2300 feet AGL
overcast cloud deck at 3000 feet AGL
Present Weather:
SOME DATA ABOVE MAY BE INACCURATE!!!
"$" is an indication the sensor requires maintenance
KMCF 170801Z AUTO 04006KT 10SM FEW023 OVC030 14/11 A3013 RMK AO2 SLP206 FZRANO $

Conditions at: KMCF observed 17 December 2018  07:56 UTC
Temperature: 14.3°C (58°F)
Dewpoint: 10.9°C (52°F) [RH = 80%]
Pressure (altimeter): 30.13 inches Hg (1020.4 mb)
[Sea-level pressure: 1020.6 mb]
Winds: from the NE (50 degrees) at 6 MPH (5 knots; 2.6 m/s)
Visibility: 10 or more miles (16+ km)
Ceiling: 2900 feet AGL
Clouds: few clouds at 2300 feet AGL
overcast cloud deck at 2900 feet AGL
Present Weather:
SOME DATA ABOVE MAY BE INACCURATE!!!
"$" is an indication the sensor requires maintenance
KMCF 170756Z AUTO 05005KT 10SM FEW023 OVC029 14/11 A3013 RMK AO2 SLP206 T01430109 FZRANO $

Conditions at: KMCF observed 17 December 2018  07:21 UTC
Temperature: 14.0°C (57°F)
Dewpoint: 11.0°C (52°F) [RH = 82%]
Pressure (altimeter): 30.12 inches Hg (1020.1 mb)
[Sea-level pressure: 1020.3 mb]
Winds: from the N (10 degrees) at 5 MPH (4 knots; 2.1 m/s)
Visibility: 10 or more miles (16+ km)
Ceiling: 2700 feet AGL
Clouds: broken clouds at 2700 feet AGL
Present Weather:
SOME DATA ABOVE MAY BE INACCURATE!!!
"$" is an indication the sensor requires maintenance
KMCF 170721Z AUTO 01004KT 10SM BKN027 14/11 A3012 RMK AO2 SLP203 FZRANO $

Conditions at: KMCF observed 17 December 2018  06:56 UTC
Temperature: 14.3°C (58°F)
Dewpoint: 10.3°C (51°F) [RH = 77%]
Pressure (altimeter): 30.13 inches Hg (1020.4 mb)
[Sea-level pressure: 1020.6 mb]
Winds: from the NNW (340 degrees) at 5 MPH (4 knots; 2.1 m/s)
Visibility: 10 or more miles (16+ km)
Ceiling: at least 12,000 feet AGL
Clouds: sky clear below 12,000 feet AGL
Present Weather:
SOME DATA ABOVE MAY BE INACCURATE!!!
"$" is an indication the sensor requires maintenance
KMCF 170656Z AUTO 34004KT 10SM CLR 14/10 A3013 RMK AO2 SLP206 T01430103 FZRANO $

Conditions at: KMCF observed 17 December 2018  05:56 UTC
Temperature: 14.7°C (58°F)
Dewpoint: 10.7°C (51°F) [RH = 77%]
Pressure (altimeter): 30.13 inches Hg (1020.4 mb)
[Sea-level pressure: 1020.6 mb]
Winds: from the N (10 degrees) at 5 MPH (4 knots; 2.1 m/s)
Visibility: 10 or more miles (16+ km)
Ceiling: 3200 feet AGL
Clouds: broken clouds at 3200 feet AGL
Present Weather:
SOME DATA ABOVE MAY BE INACCURATE!!!
"$" is an indication the sensor requires maintenance
KMCF 170556Z AUTO 01004KT 10SM BKN032 15/11 A3013 RMK AO2 SLP206 T01470107 10166 20147 58008 FZRANO $

Conditions at: KMCF observed 17 December 2018  04:56 UTC
Temperature: 16.2°C (61°F)
Dewpoint: 11.3°C (52°F) [RH = 73%]
Pressure (altimeter): 30.15 inches Hg (1021.1 mb)
[Sea-level pressure: 1021.3 mb]
Winds: from the NNW (340 degrees) at 5 MPH (4 knots; 2.1 m/s)
Visibility: 10 or more miles (16+ km)
Ceiling: 3100 feet AGL
Clouds: scattered clouds at 2200 feet AGL
overcast cloud deck at 3100 feet AGL
Present Weather:
SOME DATA ABOVE MAY BE INACCURATE!!!
"$" is an indication the sensor requires maintenance
KMCF 170456Z AUTO 34004KT 10SM SCT022 OVC031 16/11 A3015 RMK AO2 SLP213 T01620113 402090145 FZRANO $

Conditions at: KMCF observed 17 December 2018  04:46 UTC
Temperature: 16.0°C (61°F)
Dewpoint: 12.0°C (54°F) [RH = 77%]
Pressure (altimeter): 30.15 inches Hg (1021.1 mb)
[Sea-level pressure: 1021.3 mb]
Winds: from the NNW (340 degrees) at 8 MPH (7 knots; 3.6 m/s)
Visibility: 10 or more miles (16+ km)
Ceiling: 3100 feet AGL
Clouds: scattered clouds at 2200 feet AGL
overcast cloud deck at 3100 feet AGL
Present Weather:
SOME DATA ABOVE MAY BE INACCURATE!!!
"$" is an indication the sensor requires maintenance
KMCF 170446Z AUTO 34007KT 10SM SCT022 OVC031 16/12 A3015 RMK AO2 SLP213 FZRANO $

Conditions at: KMCF observed 17 December 2018  04:41 UTC
Temperature: 16.0°C (61°F)
Dewpoint: 12.0°C (54°F) [RH = 77%]
Pressure (altimeter): 30.15 inches Hg (1021.1 mb)
[Sea-level pressure: 1021.3 mb]
Winds: from the NNW (340 degrees) at 6 MPH (5 knots; 2.6 m/s)
Visibility: 10 or more miles (16+ km)
Ceiling: 2300 feet AGL
Clouds: broken clouds at 2300 feet AGL
overcast cloud deck at 3100 feet AGL
Present Weather:
SOME DATA ABOVE MAY BE INACCURATE!!!
"$" is an indication the sensor requires maintenance
KMCF 170441Z AUTO 34005KT 10SM BKN023 OVC031 16/12 A3015 RMK AO2 CIG 023V031 BKN V SCT SLP213 FZRANO $

Conditions at: KMCF observed 17 December 2018  04:36 UTC
Temperature: 16.0°C (61°F)
Dewpoint: 12.0°C (54°F) [RH = 77%]
Pressure (altimeter): 30.15 inches Hg (1021.1 mb)
[Sea-level pressure: 1021.3 mb]
Winds: from the N (350 degrees) at 6 MPH (5 knots; 2.6 m/s)
Visibility: 10 or more miles (16+ km)
Ceiling: 3100 feet AGL
Clouds: scattered clouds at 2300 feet AGL
overcast cloud deck at 3100 feet AGL
Present Weather:
SOME DATA ABOVE MAY BE INACCURATE!!!
"$" is an indication the sensor requires maintenance
KMCF 170436Z AUTO 35005KT 10SM SCT023 OVC031 16/12 A3015 RMK AO2 SLP213 FZRANO $

Conditions at: KMCF observed 17 December 2018  03:56 UTC
Temperature: 16.4°C (62°F)
Dewpoint: 11.3°C (52°F) [RH = 72%]
Pressure (altimeter): 30.16 inches Hg (1021.4 mb)
[Sea-level pressure: 1021.6 mb]
Winds: from the NNW (340 degrees) at 5 MPH (4 knots; 2.1 m/s)
Visibility: 10 or more miles (16+ km)
Ceiling: 2900 feet AGL
Clouds: overcast cloud deck at 2900 feet AGL
Present Weather:
SOME DATA ABOVE MAY BE INACCURATE!!!
"$" is an indication the sensor requires maintenance
KMCF 170356Z AUTO 34004KT 10SM OVC029 16/11 A3016 RMK AO2 CIG 027 RWY22 SLP216 T01640113 FZRANO $

Conditions at: KMCF observed 17 December 2018  02:56 UTC
Temperature: 16.0°C (61°F)
Dewpoint: 12.0°C (54°F) [RH = 77%]
Pressure (altimeter): 30.16 inches Hg (1021.4 mb)
[Sea-level pressure: 1021.6 mb]
Winds: calm
Visibility: 10 or more miles (16+ km)
Ceiling: 2700 feet AGL
Clouds: broken clouds at 2700 feet AGL
overcast cloud deck at 3200 feet AGL
Present Weather:
SOME DATA ABOVE MAY BE INACCURATE!!!
"$" is an indication the sensor requires maintenance
KMCF 170256Z AUTO 00000KT 10SM BKN027 OVC032 16/12 A3016 RMK AO2 SLP216 T01600120 51007 FZRANO $

Conditions at: KMCF observed 17 December 2018  02:21 UTC
Temperature: 16.0°C (61°F)
Dewpoint: 12.0°C (54°F) [RH = 77%]
Pressure (altimeter): 30.16 inches Hg (1021.4 mb)
[Sea-level pressure: 1021.6 mb]
Winds: calm
Visibility: 10 or more miles (16+ km)
Ceiling: 3000 feet AGL
Clouds: scattered clouds at 2200 feet AGL
overcast cloud deck at 3000 feet AGL
Present Weather:
SOME DATA ABOVE MAY BE INACCURATE!!!
"$" is an indication the sensor requires maintenance
KMCF 170221Z AUTO 00000KT 10SM SCT022 OVC030 16/12 A3016 RMK AO2 SLP216 FZRANO $

Conditions at: KMCF observed 17 December 2018  02:16 UTC
Temperature: 16.0°C (61°F)
Dewpoint: 12.0°C (54°F) [RH = 77%]
Pressure (altimeter): 30.16 inches Hg (1021.4 mb)
[Sea-level pressure: 1021.6 mb]
Winds: calm
Visibility: 10 or more miles (16+ km)
Ceiling: 2500 feet AGL
Clouds: broken clouds at 2500 feet AGL
overcast cloud deck at 3200 feet AGL
Present Weather:
SOME DATA ABOVE MAY BE INACCURATE!!!
"$" is an indication the sensor requires maintenance
KMCF 170216Z AUTO 00000KT 10SM BKN025 OVC032 16/12 A3016 RMK AO2 CIG 025V031 BKN V SCT SLP216 FZRANO $

Conditions at: KMCF observed 17 December 2018  01:56 UTC
Temperature: 16.0°C (61°F)
Dewpoint: 11.6°C (53°F) [RH = 75%]
Pressure (altimeter): 30.15 inches Hg (1021.1 mb)
[Sea-level pressure: 1021.3 mb]
Winds: calm
Visibility: 10 or more miles (16+ km)
Ceiling: 2600 feet AGL
Clouds: overcast cloud deck at 2600 feet AGL
Present Weather:
SOME DATA ABOVE MAY BE INACCURATE!!!
"$" is an indication the sensor requires maintenance
KMCF 170156Z AUTO 00000KT 10SM OVC026 16/12 A3015 RMK AO2 SLP213 T01600116 FZRANO $

Conditions at: KMCF observed 17 December 2018  01:01 UTC
Temperature: 16.0°C (61°F)
Dewpoint: 11.0°C (52°F) [RH = 72%]
Pressure (altimeter): 30.15 inches Hg (1021.1 mb)
[Sea-level pressure: 1021.3 mb]
Winds: from the N (360 degrees) at 5 MPH (4 knots; 2.1 m/s)
Visibility: 10 or more miles (16+ km)
Ceiling: 2900 feet AGL
Clouds: overcast cloud deck at 2900 feet AGL
Present Weather:
SOME DATA ABOVE MAY BE INACCURATE!!!
"$" is an indication the sensor requires maintenance
KMCF 170101Z AUTO 36004KT 10SM OVC029 16/11 A3015 RMK AO2 SLP213 FZRANO $

Conditions at: KMCF observed 17 December 2018  00:56 UTC
Temperature: 16.1°C (61°F)
Dewpoint: 11.5°C (53°F) [RH = 74%]
Pressure (altimeter): 30.15 inches Hg (1021.1 mb)
[Sea-level pressure: 1021.3 mb]
Winds: from the N (360 degrees) at 6 MPH (5 knots; 2.6 m/s)
Visibility: 10 or more miles (16+ km)
Ceiling: 3100 feet AGL
Clouds: overcast cloud deck at 3100 feet AGL
Present Weather:
SOME DATA ABOVE MAY BE INACCURATE!!!
"$" is an indication the sensor requires maintenance
KMCF 170056Z AUTO 36005KT 10SM OVC031 16/12 A3015 RMK AO2 SLP213 T01610115 FZRANO $

Conditions at: KMCF observed 16 December 2018  23:56 UTC
Temperature: 15.9°C (61°F)
Dewpoint: 11.3°C (52°F) [RH = 74%]
Pressure (altimeter): 30.14 inches Hg (1020.7 mb)
[Sea-level pressure: 1020.9 mb]
Winds: from the N (360 degrees) at 6 MPH (5 knots; 2.6 m/s)
Visibility: 10 or more miles (16+ km)
Ceiling: at least 12,000 feet AGL
Clouds: scattered clouds at 3400 feet AGL
Present Weather:
SOME DATA ABOVE MAY BE INACCURATE!!!
"$" is an indication the sensor requires maintenance
KMCF 162356Z AUTO 36005KT 10SM SCT034 16/11 A3014 RMK AO2 SLP209 T01590113 10209 20159 52015 FZRANO $

Conditions at: KMCF observed 16 December 2018  22:56 UTC
Temperature: 16.9°C (62°F)
Dewpoint: 11.4°C (53°F) [RH = 70%]
Pressure (altimeter): 30.12 inches Hg (1020.1 mb)
[Sea-level pressure: 1020.3 mb]
Winds: from the N (350 degrees) at 8 MPH (7 knots; 3.6 m/s)
Visibility: 10 or more miles (16+ km)
Ceiling: at least 12,000 feet AGL
Clouds: sky clear below 12,000 feet AGL
Present Weather:
SOME DATA ABOVE MAY BE INACCURATE!!!
"$" is an indication the sensor requires maintenance
KMCF 162256Z AUTO 35007KT 10SM CLR 17/11 A3012 RMK AO2 SLP203 T01690114 FZRANO $

Conditions at: KMCF observed 16 December 2018  21:56 UTC
Temperature: 19.0°C (66°F)
Dewpoint: 12.9°C (55°F) [RH = 68%]
Pressure (altimeter): 30.12 inches Hg (1020.1 mb)
[Sea-level pressure: 1020.3 mb]
Winds: from the NNW (340 degrees) at 8 MPH (7 knots; 3.6 m/s)
Visibility: 10 or more miles (16+ km)
Ceiling: at least 12,000 feet AGL
Clouds: sky clear below 12,000 feet AGL
Present Weather:
SOME DATA ABOVE MAY BE INACCURATE!!!
"$" is an indication the sensor requires maintenance
KMCF 162156Z AUTO 34007KT 10SM CLR 19/13 A3012 RMK AO2 SLP203 T01900129 FZRANO $

Conditions at: KMCF observed 16 December 2018  20:56 UTC
Temperature: 20.2°C (68°F)
Dewpoint: 13.4°C (56°F) [RH = 65%]
Pressure (altimeter): 30.09 inches Hg (1019.0 mb)
[Sea-level pressure: 1019.3 mb]
Winds: from the N (350 degrees) at 5 MPH (4 knots; 2.1 m/s)
Visibility: 10 or more miles (16+ km)
Ceiling: at least 12,000 feet AGL
Clouds: sky clear below 12,000 feet AGL
Present Weather:
SOME DATA ABOVE MAY BE INACCURATE!!!
"$" is an indication the sensor requires maintenance
KMCF 162056Z AUTO 35004KT 10SM CLR 20/13 A3009 RMK AO2 SLP193 T02020134 55004 FZRANO $

Conditions at: KMCF observed 16 December 2018  19:56 UTC
Temperature: 20.8°C (69°F)
Dewpoint: 14.2°C (58°F) [RH = 66%]
Pressure (altimeter): 30.08 inches Hg (1018.7 mb)
[Sea-level pressure: 1018.9 mb]
Winds: from the NNW (330 degrees) at 8 MPH (7 knots; 3.6 m/s)
Visibility: 10 or more miles (16+ km)
Ceiling: at least 12,000 feet AGL
Clouds: sky clear below 12,000 feet AGL
Present Weather:
SOME DATA ABOVE MAY BE INACCURATE!!!
"$" is an indication the sensor requires maintenance
KMCF 161956Z AUTO 33007KT 10SM CLR 21/14 A3008 RMK AO2 SLP189 T02080142 FZRANO $

Conditions at: KMCF observed 16 December 2018  18:56 UTC
Temperature: 20.6°C (69°F)
Dewpoint: 14.9°C (59°F) [RH = 70%]
Pressure (altimeter): 30.08 inches Hg (1018.7 mb)
[Sea-level pressure: 1018.9 mb]
Winds: from the N (10 degrees) at 8 MPH (7 knots; 3.6 m/s)
Visibility: 10 or more miles (16+ km)
Ceiling: at least 12,000 feet AGL
Clouds: scattered clouds at 3900 feet AGL
Present Weather:
SOME DATA ABOVE MAY BE INACCURATE!!!
"$" is an indication the sensor requires maintenance
KMCF 161856Z AUTO 01007KT 10SM SCT039 21/15 A3008 RMK AO2 SLP189 T02060149 FZRANO $

Conditions at: KMCF observed 16 December 2018  17:56 UTC
Temperature: 20.7°C (69°F)
Dewpoint: 15.2°C (59°F) [RH = 71%]
Pressure (altimeter): 30.10 inches Hg (1019.4 mb)
[Sea-level pressure: 1019.6 mb]
Winds: from the N (350 degrees) at 8 MPH (7 knots; 3.6 m/s)
Visibility: 10 or more miles (16+ km)
Ceiling: at least 12,000 feet AGL
Clouds: sky clear below 12,000 feet AGL
Present Weather:
SOME DATA ABOVE MAY BE INACCURATE!!!
"$" is an indication the sensor requires maintenance
KMCF 161756Z AUTO 35007KT 10SM CLR 21/15 A3010 RMK AO2 SLP196 60000 T02070152 10207 20150 57021 FZRANO $

Conditions at: KMCF observed 16 December 2018  16:56 UTC
Temperature: 20.5°C (69°F)
Dewpoint: 15.5°C (60°F) [RH = 73%]
Pressure (altimeter): 30.13 inches Hg (1020.4 mb)
[Sea-level pressure: 1020.6 mb]
Winds: from the NNE (20 degrees) at 8 MPH (7 knots; 3.6 m/s)
Visibility: 10 or more miles (16+ km)
Ceiling: at least 12,000 feet AGL
Clouds: sky clear below 12,000 feet AGL
Present Weather:
SOME DATA ABOVE MAY BE INACCURATE!!!
"$" is an indication the sensor requires maintenance
KMCF 161656Z AUTO 02007KT 10SM CLR 21/16 A3013 RMK AO2 SLP206 T02050155 FZRANO $

Conditions at: KMCF observed 16 December 2018  15:56 UTC
Temperature: 20.0°C (68°F)
Dewpoint: 16.2°C (61°F) [RH = 79%]
Pressure (altimeter): 30.15 inches Hg (1021.1 mb)
[Sea-level pressure: 1021.3 mb]
Winds: from the N (10 degrees) at 7 MPH (6 knots; 3.1 m/s)
Visibility: 10 or more miles (16+ km)
Ceiling: at least 12,000 feet AGL
Clouds: few clouds at 1000 feet AGL
Present Weather:
SOME DATA ABOVE MAY BE INACCURATE!!!
"$" is an indication the sensor requires maintenance
KMCF 161556Z AUTO 01006KT 10SM FEW010 20/16 A3015 RMK AO2 SLP213 T02000162 FZRANO $

Conditions at: KMCF observed 16 December 2018  15:12 UTC
Temperature: 19.0°C (66°F)
Dewpoint: 17.0°C (63°F) [RH = 88%]
Pressure (altimeter): 30.16 inches Hg (1021.4 mb)
[Sea-level pressure: 1021.6 mb]
Winds: from the N (360 degrees) at 6 MPH (5 knots; 2.6 m/s)
Visibility: 10 or more miles (16+ km)
Ceiling: at least 12,000 feet AGL
Clouds: few clouds at 600 feet AGL
scattered clouds at 1000 feet AGL
scattered clouds at 1800 feet AGL
scattered clouds at 4800 feet AGL
Present Weather:
SOME DATA ABOVE MAY BE INACCURATE!!!
"$" is an indication the sensor requires maintenance
KMCF 161512Z AUTO 36005KT 10SM FEW006 SCT010 SCT018 SCT048 19/17 A3016 RMK AO2 SLP216 FZRANO $

Conditions at: KMCF observed 16 December 2018  15:07 UTC
Temperature: 19.0°C (66°F)
Dewpoint: 17.0°C (63°F) [RH = 88%]
Pressure (altimeter): 30.17 inches Hg (1021.8 mb)
[Sea-level pressure: 1022.0 mb]
Winds: from the N (10 degrees) at 6 MPH (5 knots; 2.6 m/s)
Visibility: 10 or more miles (16+ km)
Ceiling: 1800 feet AGL
Clouds: few clouds at 600 feet AGL
scattered clouds at 1000 feet AGL
broken clouds at 1800 feet AGL
broken clouds at 4900 feet AGL
Present Weather:
SOME DATA ABOVE MAY BE INACCURATE!!!
"$" is an indication the sensor requires maintenance
KMCF 161507Z AUTO 01005KT 10SM FEW006 SCT010 BKN018 BKN049 BKN060 19/17 A3017 RMK AO2 CIG 009V049 CIG 012 RWY22 SLP220 FZRANO $

Conditions at: KMCF observed 16 December 2018  15:02 UTC
Temperature: 19.0°C (66°F)
Dewpoint: 17.0°C (63°F) [RH = 88%]
Pressure (altimeter): 30.17 inches Hg (1021.8 mb)
[Sea-level pressure: 1022.0 mb]
Winds: from the N (360 degrees) at 7 MPH (6 knots; 3.1 m/s)
Visibility: 10 or more miles (16+ km)
Ceiling: 900 feet AGL
Clouds: few clouds at 600 feet AGL
broken clouds at 900 feet AGL
broken clouds at 1800 feet AGL
broken clouds at 4900 feet AGL
Present Weather:
SOME DATA ABOVE MAY BE INACCURATE!!!
"$" is an indication the sensor requires maintenance
KMCF 161502Z AUTO 36006KT 10SM FEW006 BKN009 BKN018 BKN049 OVC060 19/17 A3017 RMK AO2 CIG 009V060 BKN009 V SCT SLP220 FZRANO $

Conditions at: KMCF observed 16 December 2018  14:57 UTC
Temperature: 20.0°C (68°F)
Dewpoint: 18.0°C (64°F) [RH = 88%]
Pressure (altimeter): 30.17 inches Hg (1021.8 mb)
[Sea-level pressure: 1022.0 mb]
Winds: from the N (360 degrees) at 7 MPH (6 knots; 3.1 m/s)
Visibility: 10 or more miles (16+ km)
Ceiling: 4900 feet AGL
Clouds: scattered clouds at 900 feet AGL
broken clouds at 4900 feet AGL
broken clouds at 6000 feet AGL
Present Weather:
SOME DATA ABOVE MAY BE INACCURATE!!!
"$" is an indication the sensor requires maintenance
KMCF 161457Z AUTO 36006KT 10SM SCT009 BKN049 BKN060 20/18 A3017 RMK AO2 SLP220 FZRANO $

Conditions at: KMCF observed 16 December 2018  14:56 UTC
Temperature: 20.0°C (68°F)
Dewpoint: 17.9°C (64°F) [RH = 88%]
Pressure (altimeter): 30.17 inches Hg (1021.8 mb)
[Sea-level pressure: 1022.0 mb]
Winds: from the N (360 degrees) at 7 MPH (6 knots; 3.1 m/s)
Visibility: 10 or more miles (16+ km)
Ceiling: 4900 feet AGL
Clouds: scattered clouds at 1100 feet AGL
scattered clouds at 1900 feet AGL
broken clouds at 4900 feet AGL
overcast cloud deck at 6000 feet AGL
Present Weather:
SOME DATA ABOVE MAY BE INACCURATE!!!
"$" is an indication the sensor requires maintenance
KMCF 161456Z AUTO 36006KT 10SM SCT011 SCT019 BKN049 OVC060 20/18 A3017 RMK AO2 SLP220 60000 T02000179 52017 FZRANO $

Conditions at: KMCF observed 16 December 2018  14:49 UTC
Temperature: 20.0°C (68°F)
Dewpoint: 18.0°C (64°F) [RH = 88%]
Pressure (altimeter): 30.16 inches Hg (1021.4 mb)
[Sea-level pressure: 1021.6 mb]
Winds: calm
Visibility: 10 or more miles (16+ km)
Ceiling: 6000 feet AGL
Clouds: few clouds at 1000 feet AGL
few clouds at 1900 feet AGL
scattered clouds at 4900 feet AGL
overcast cloud deck at 6000 feet AGL
Present Weather:
SOME DATA ABOVE MAY BE INACCURATE!!!
"$" is an indication the sensor requires maintenance
KMCF 161449Z AUTO 00000KT 10SM FEW010 FEW019 SCT049 OVC060 20/18 A3016 RMK AO2 SLP216 FZRANO $

Conditions at: KMCF observed 16 December 2018  13:56 UTC
Temperature: 17.7°C (64°F)
Dewpoint: 16.7°C (62°F) [RH = 94%]
Pressure (altimeter): 30.15 inches Hg (1021.1 mb)
[Sea-level pressure: 1021.3 mb]
Winds: from the S (170 degrees) at 3 MPH (3 knots; 1.6 m/s)
Visibility: 10 or more miles (16+ km)
Ceiling: 6500 feet AGL
Clouds: overcast cloud deck at 6500 feet AGL
Present Weather:
SOME DATA ABOVE MAY BE INACCURATE!!!
"$" is an indication the sensor requires maintenance
KMCF 161356Z AUTO 17003KT 10SM OVC065 18/17 A3015 RMK AO2 SLP213 T01770167 FZRANO $

Conditions at: KMCF observed 16 December 2018  12:56 UTC
Temperature: 15.0°C (59°F)
Dewpoint: 13.9°C (57°F) [RH = 93%]
Pressure (altimeter): 30.14 inches Hg (1020.7 mb)
[Sea-level pressure: 1020.9 mb]
Winds: calm
Visibility: 5 miles (8 km)
Ceiling: at least 12,000 feet AGL
Clouds: scattered clouds at 7000 feet AGL
Present Weather: BR  (mist)
SOME DATA ABOVE MAY BE INACCURATE!!!
"$" is an indication the sensor requires maintenance
KMCF 161256Z AUTO 00000KT 5SM BR SCT070 15/14 A3014 RMK AO2 VIS 7/8 RWY22 DZB1156E06DZB11E13 SLP209 P0000 T01500139 FZRANO $

Conditions at: KMCF observed 16 December 2018  12:13 UTC
Temperature: 16.0°C (61°F)
Dewpoint: 15.0°C (59°F) [RH = 94%]
Pressure (altimeter): 30.12 inches Hg (1020.1 mb)
[Sea-level pressure: 1020.3 mb]
Winds: calm
Visibility: 10 or more miles (16+ km)
Ceiling: 6500 feet AGL
Clouds: few clouds at 5000 feet AGL
broken clouds at 6500 feet AGL
Present Weather:
SOME DATA ABOVE MAY BE INACCURATE!!!
"$" is an indication the sensor requires maintenance
KMCF 161213Z AUTO 00000KT 10SM FEW050 BKN065 16/15 A3012 RMK AO2 VIS 1 1/8 RWY22 DZB1156E06DZB11E13 SLP203 FZRANO $

Conditions at: KMCF observed 16 December 2018  12:11 UTC
Temperature: 16.0°C (61°F)
Dewpoint: 15.0°C (59°F) [RH = 94%]
Pressure (altimeter): 30.12 inches Hg (1020.1 mb)
[Sea-level pressure: 1020.3 mb]
Winds: calm
Visibility: 10 or more miles (16+ km)
Ceiling: 6000 feet AGL
Clouds: broken clouds at 6000 feet AGL
Present Weather: -DZ  (light drizzle)
SOME DATA ABOVE MAY BE INACCURATE!!!
"$" is an indication the sensor requires maintenance
KMCF 161211Z AUTO 00000KT 10SM -DZ BKN060 16/15 A3012 RMK AO2 VIS 1 5/8 RWY22 DZB1156E06DZB11 SLP203 FZRANO $

Conditions at: KMCF observed 16 December 2018  12:06 UTC
Temperature: 16.0°C (61°F)
Dewpoint: 15.0°C (59°F) [RH = 94%]
Pressure (altimeter): 30.12 inches Hg (1020.1 mb)
[Sea-level pressure: 1020.3 mb]
Winds: calm
Visibility: 10 or more miles (16+ km)
Ceiling: 6500 feet AGL
Clouds: few clouds at 5500 feet AGL
overcast cloud deck at 6500 feet AGL
Present Weather:
SOME DATA ABOVE MAY BE INACCURATE!!!
"$" is an indication the sensor requires maintenance
KMCF 161206Z AUTO 00000KT 10SM FEW055 OVC065 16/15 A3012 RMK AO2 DZB1156E06 SLP203 FZRANO $

Conditions at: KMCF observed 16 December 2018  11:57 UTC
Temperature: 16.0°C (61°F)
Dewpoint: 15.0°C (59°F) [RH = 94%]
Pressure (altimeter): 30.11 inches Hg (1019.7 mb)
[Sea-level pressure: 1019.9 mb]
Winds: from the S (170 degrees) at 3 MPH (3 knots; 1.6 m/s)
Visibility: 10 or more miles (16+ km)
Ceiling: 6500 feet AGL
Clouds: scattered clouds at 5000 feet AGL
overcast cloud deck at 6500 feet AGL
Present Weather: -DZ  (light drizzle)
SOME DATA ABOVE MAY BE INACCURATE!!!
"$" is an indication the sensor requires maintenance
KMCF 161157Z AUTO 17003KT 10SM -DZ SCT050 OVC065 16/15 A3011 RMK AO2 DZB56 SLP199 FZRANO $

Conditions at: KMCF observed 16 December 2018  11:56 UTC
Temperature: 15.5°C (60°F)
Dewpoint: 14.5°C (58°F) [RH = 94%]
Pressure (altimeter): 30.11 inches Hg (1019.7 mb)
[Sea-level pressure: 1019.9 mb]
Winds: from the S (170 degrees) at 3 MPH (3 knots; 1.6 m/s)
Visibility: 10 or more miles (16+ km)
Ceiling: 6500 feet AGL
Clouds: scattered clouds at 5000 feet AGL
overcast cloud deck at 6500 feet AGL
Present Weather:
SOME DATA ABOVE MAY BE INACCURATE!!!
"$" is an indication the sensor requires maintenance
KMCF 161156Z AUTO 17003KT 10SM SCT050 OVC065 16/15 A3011 RMK AO2 DZB25E37 SLP199 P0000 60000 T01550145 10170 20145 52012 FZRANO $

Conditions at: KMCF observed 16 December 2018  11:37 UTC
Temperature: 15.0°C (59°F)
Dewpoint: 14.0°C (57°F) [RH = 94%]
Pressure (altimeter): 30.11 inches Hg (1019.7 mb)
[Sea-level pressure: 1019.9 mb]
Winds: calm
Visibility: 10 or more miles (16+ km)
Ceiling: 6500 feet AGL
Clouds: overcast cloud deck at 6500 feet AGL
Present Weather:
SOME DATA ABOVE MAY BE INACCURATE!!!
"$" is an indication the sensor requires maintenance
KMCF 161137Z AUTO 00000KT 10SM OVC065 15/14 A3011 RMK AO2 VIS 2 3/4 RWY22 DZB25E37 SLP199 FZRANO $

Conditions at: KMCF observed 16 December 2018  11:35 UTC
Temperature: 15.0°C (59°F)
Dewpoint: 14.0°C (57°F) [RH = 94%]
Pressure (altimeter): 30.11 inches Hg (1019.7 mb)
[Sea-level pressure: 1019.9 mb]
Winds: calm
Visibility: 10 or more miles (16+ km)
Ceiling: 6500 feet AGL
Clouds: overcast cloud deck at 6500 feet AGL
Present Weather: -DZ  (light drizzle)
SOME DATA ABOVE MAY BE INACCURATE!!!
"$" is an indication the sensor requires maintenance
KMCF 161135Z AUTO 00000KT 10SM -DZ OVC065 15/14 A3011 RMK AO2 VIS 2 1/2 RWY22 DZB25 SLP199 FZRANO $

Conditions at: KMCF observed 16 December 2018  11:25 UTC
Temperature: 16.0°C (61°F)
Dewpoint: 15.0°C (59°F) [RH = 94%]
Pressure (altimeter): 30.11 inches Hg (1019.7 mb)
[Sea-level pressure: 1019.9 mb]
Winds: calm
Visibility: 2.50 miles (4.02 km)
Ceiling: 6500 feet AGL
Clouds: overcast cloud deck at 6500 feet AGL
Present Weather: -DZ BR  (light drizzle, mist)
SOME DATA ABOVE MAY BE INACCURATE!!!
"$" is an indication the sensor requires maintenance
KMCF 161125Z AUTO 00000KT 2 1/2SM -DZ BR OVC065 16/15 A3011 RMK AO2 VIS 7/8V2 1/2 DZB25 SLP199 FZRANO $

Conditions at: KMCF observed 16 December 2018  11:21 UTC
Temperature: 16.0°C (61°F)
Dewpoint: 15.0°C (59°F) [RH = 94%]
Pressure (altimeter): 30.11 inches Hg (1019.7 mb)
[Sea-level pressure: 1019.9 mb]
Winds: calm
Visibility: 1.38 miles (2.22 km)
Ceiling: 6500 feet AGL
Clouds: overcast cloud deck at 6500 feet AGL
Present Weather: BR  (mist)
SOME DATA ABOVE MAY BE INACCURATE!!!
"$" is an indication the sensor requires maintenance
KMCF 161121Z AUTO 00000KT 1 3/8SM BR OVC065 16/15 A3011 RMK AO2 VIS 3/4V1 3/8 SLP199 FZRANO $

Conditions at: KMCF observed 16 December 2018  11:16 UTC
Temperature: 15.0°C (59°F)
Dewpoint: 14.0°C (57°F) [RH = 94%]
Pressure (altimeter): 30.10 inches Hg (1019.4 mb)
[Sea-level pressure: 1019.6 mb]
Winds: calm
Visibility: 0.88 miles (1.42 km)
Ceiling: 6500 feet AGL
Clouds: overcast cloud deck at 6500 feet AGL
Present Weather: BR  (mist)
SOME DATA ABOVE MAY BE INACCURATE!!!
"$" is an indication the sensor requires maintenance
KMCF 161116Z AUTO 00000KT 7/8SM R22/4000VP6000FT BR OVC065 15/14 A3010 RMK AO2 SLP196 FZRANO $

Conditions at: KMCF observed 16 December 2018  11:06 UTC
Temperature: 15.0°C (59°F)
Dewpoint: 14.0°C (57°F) [RH = 94%]
Pressure (altimeter): 30.10 inches Hg (1019.4 mb)
[Sea-level pressure: 1019.6 mb]
Winds: calm
Visibility: 0.75 miles (1.21 km)
Ceiling: 6500 feet AGL
Clouds: overcast cloud deck at 6500 feet AGL
Present Weather: BR  (mist)
SOME DATA ABOVE MAY BE INACCURATE!!!
"$" is an indication the sensor requires maintenance
KMCF 161106Z AUTO 00000KT 3/4SM R22/4000V5000FT BR OVC065 15/14 A3010 RMK AO2 SLP196 FZRANO $

Conditions at: KMCF observed 16 December 2018  10:56 UTC
Temperature: 14.5°C (58°F)
Dewpoint: 13.5°C (56°F) [RH = 94%]
Pressure (altimeter): 30.10 inches Hg (1019.4 mb)
[Sea-level pressure: 1019.6 mb]
Winds: calm
Visibility: 0.63 miles (1.01 km)
Ceiling: 6500 feet AGL
Clouds: overcast cloud deck at 6500 feet AGL
Present Weather: BR  (mist)
SOME DATA ABOVE MAY BE INACCURATE!!!
"$" is an indication the sensor requires maintenance
KMCF 161056Z AUTO 00000KT 5/8SM R22/2800V3500FT BR OVC065 15/14 A3010 RMK AO2 VIS 5/8V3 SLP196 T01450135 FZRANO $

Conditions at: KMCF observed 16 December 2018  10:51 UTC
Temperature: 15.0°C (59°F)
Dewpoint: 13.0°C (55°F) [RH = 88%]
Pressure (altimeter): 30.10 inches Hg (1019.4 mb)
[Sea-level pressure: 1019.6 mb]
Winds: calm
Visibility: 2.75 miles (4.43 km)
Ceiling: 6500 feet AGL
Clouds: overcast cloud deck at 6500 feet AGL
Present Weather: BR  (mist)
SOME DATA ABOVE MAY BE INACCURATE!!!
"$" is an indication the sensor requires maintenance
KMCF 161051Z AUTO 00000KT 2 3/4SM BR OVC065 15/13 A3010 RMK AO2 VIS 2 1/4V4 SLP196 FZRANO $

Conditions at: KMCF observed 16 December 2018  10:46 UTC
Temperature: 15.0°C (59°F)
Dewpoint: 14.0°C (57°F) [RH = 94%]
Pressure (altimeter): 30.09 inches Hg (1019.0 mb)
[Sea-level pressure: 1019.3 mb]
Winds: calm
Visibility: 4 miles (6 km)
Ceiling: 6500 feet AGL
Clouds: overcast cloud deck at 6500 feet AGL
Present Weather: BR  (mist)
SOME DATA ABOVE MAY BE INACCURATE!!!
"$" is an indication the sensor requires maintenance
KMCF 161046Z AUTO 00000KT 4SM BR OVC065 15/14 A3009 RMK AO2 SLP193 FZRANO $

Conditions at: KMCF observed 16 December 2018  10:41 UTC
Temperature: 15.0°C (59°F)
Dewpoint: 14.0°C (57°F) [RH = 94%]
Pressure (altimeter): 30.09 inches Hg (1019.0 mb)
[Sea-level pressure: 1019.3 mb]
Winds: calm
Visibility: 1.88 miles (3.03 km)
Ceiling: 6500 feet AGL
Clouds: broken clouds at 6500 feet AGL
Present Weather: BR  (mist)
SOME DATA ABOVE MAY BE INACCURATE!!!
"$" is an indication the sensor requires maintenance
KMCF 161041Z AUTO 00000KT 1 7/8SM BR BKN065 15/14 A3009 RMK AO2 VIS 1V1 7/8 SLP193 FZRANO $

Conditions at: KMCF observed 16 December 2018  10:36 UTC
Temperature: 15.0°C (59°F)
Dewpoint: 14.0°C (57°F) [RH = 94%]
Pressure (altimeter): 30.09 inches Hg (1019.0 mb)
[Sea-level pressure: 1019.3 mb]
Winds: calm
Visibility: 1.25 miles (2.01 km)
Ceiling: 6500 feet AGL
Clouds: broken clouds at 6500 feet AGL
Present Weather: BR  (mist)
SOME DATA ABOVE MAY BE INACCURATE!!!
"$" is an indication the sensor requires maintenance
KMCF 161036Z AUTO 00000KT 1 1/4SM BR BKN065 15/14 A3009 RMK AO2 SLP193 FZRANO $

Conditions at: KMCF observed 16 December 2018  10:31 UTC
Temperature: 15.0°C (59°F)
Dewpoint: 14.0°C (57°F) [RH = 94%]
Pressure (altimeter): 30.09 inches Hg (1019.0 mb)
[Sea-level pressure: 1019.3 mb]
Winds: calm
Visibility: 1.00 miles (1.61 km)
Ceiling: 6500 feet AGL
Clouds: broken clouds at 6500 feet AGL
Present Weather: BR  (mist)
SOME DATA ABOVE MAY BE INACCURATE!!!
"$" is an indication the sensor requires maintenance
KMCF 161031Z AUTO 00000KT 1SM R22/4000VP6000FT BR BKN065 15/14 A3009 RMK AO2 SLP193 FZRANO $

Conditions at: KMCF observed 16 December 2018  10:26 UTC
Temperature: 15.0°C (59°F)
Dewpoint: 14.0°C (57°F) [RH = 94%]
Pressure (altimeter): 30.09 inches Hg (1019.0 mb)
[Sea-level pressure: 1019.3 mb]
Winds: calm
Visibility: 0.88 miles (1.42 km)
Ceiling: at least 12,000 feet AGL
Clouds: scattered clouds at 6500 feet AGL
Present Weather: BR  (mist)
SOME DATA ABOVE MAY BE INACCURATE!!!
"$" is an indication the sensor requires maintenance
KMCF 161026Z AUTO 00000KT 7/8SM R22/4000VP6000FT BR SCT065 15/14 A3009 RMK AO2 VIS 7/8V2 1/2 SLP193 FZRANO $

Conditions at: KMCF observed 16 December 2018  10:21 UTC
Temperature: 15.0°C (59°F)
Dewpoint: 14.0°C (57°F) [RH = 94%]
Pressure (altimeter): 30.09 inches Hg (1019.0 mb)
[Sea-level pressure: 1019.3 mb]
Winds: calm
Visibility: 1.63 miles (2.62 km)
Ceiling: at least 12,000 feet AGL
Clouds: few clouds at 6500 feet AGL
Present Weather: BR  (mist)
SOME DATA ABOVE MAY BE INACCURATE!!!
"$" is an indication the sensor requires maintenance
KMCF 161021Z AUTO 00000KT 1 5/8SM BR FEW065 15/14 A3009 RMK AO2 VIS 1 5/8V2 1/2 SLP193 FZRANO $

Conditions at: KMCF observed 16 December 2018  10:16 UTC
Temperature: 15.0°C (59°F)
Dewpoint: 14.0°C (57°F) [RH = 94%]
Pressure (altimeter): 30.09 inches Hg (1019.0 mb)
[Sea-level pressure: 1019.3 mb]
Winds: calm
Visibility: 2.50 miles (4.02 km)
Ceiling: at least 12,000 feet AGL
Clouds: sky clear below 12,000 feet AGL
Present Weather: BR  (mist)
SOME DATA ABOVE MAY BE INACCURATE!!!
"$" is an indication the sensor requires maintenance
KMCF 161016Z AUTO 00000KT 2 1/2SM BR CLR 15/14 A3009 RMK AO2 VIS 1V2 1/2 SLP193 FZRANO $

Conditions at: KMCF observed 16 December 2018  10:11 UTC
Temperature: 15.0°C (59°F)
Dewpoint: 14.0°C (57°F) [RH = 94%]
Pressure (altimeter): 30.09 inches Hg (1019.0 mb)
[Sea-level pressure: 1019.3 mb]
Winds: calm
Visibility: 1.75 miles (2.82 km)
Ceiling: at least 12,000 feet AGL
Clouds: few clouds at 6500 feet AGL
Present Weather: BR  (mist)
SOME DATA ABOVE MAY BE INACCURATE!!!
"$" is an indication the sensor requires maintenance
KMCF 161011Z AUTO 00000KT 1 3/4SM BR FEW065 15/14 A3009 RMK AO2 VIS 1V4 SLP193 FZRANO $

Conditions at: KMCF observed 16 December 2018  10:06 UTC
Temperature: 15.0°C (59°F)
Dewpoint: 14.0°C (57°F) [RH = 94%]
Pressure (altimeter): 30.09 inches Hg (1019.0 mb)
[Sea-level pressure: 1019.3 mb]
Winds: calm
Visibility: 2.75 miles (4.43 km)
Ceiling: at least 12,000 feet AGL
Clouds: few clouds at 6000 feet AGL
Present Weather: BR  (mist)
SOME DATA ABOVE MAY BE INACCURATE!!!
"$" is an indication the sensor requires maintenance
KMCF 161006Z AUTO 00000KT 2 3/4SM BR FEW060 15/14 A3009 RMK AO2 VIS 2 3/4V8 SLP193 FZRANO $

Conditions at: KMCF observed 16 December 2018  09:56 UTC
Temperature: 15.7°C (60°F)
Dewpoint: 14.7°C (58°F) [RH = 94%]
Pressure (altimeter): 30.09 inches Hg (1019.0 mb)
[Sea-level pressure: 1019.3 mb]
Winds: calm
Visibility: 8 miles (13 km)
Ceiling: 6000 feet AGL
Clouds: broken clouds at 6000 feet AGL
Present Weather:
SOME DATA ABOVE MAY BE INACCURATE!!!
"$" is an indication the sensor requires maintenance
KMCF 160956Z AUTO 00000KT 8SM BKN060 16/15 A3009 RMK AO2 SLP193 T01570147 FZRANO $

Conditions at: KMCF observed 16 December 2018  08:56 UTC
Temperature: 14.7°C (58°F)
Dewpoint: 13.6°C (56°F) [RH = 93%]
Pressure (altimeter): 30.08 inches Hg (1018.7 mb)
[Sea-level pressure: 1018.9 mb]
Winds: calm
Visibility: 10 or more miles (16+ km)
Ceiling: 6500 feet AGL
Clouds: overcast cloud deck at 6500 feet AGL
Present Weather:
SOME DATA ABOVE MAY BE INACCURATE!!!
"$" is an indication the sensor requires maintenance
KMCF 160856Z AUTO 00000KT 10SM OVC065 15/14 A3008 RMK AO2 SLP189 T01470136 FZRANO $